Jim Hamilton L.B. Owens Airport Columbia US
ICAO: KCUB
IATA: CUB
Category: Medium
Scheduled Services: No

Elevation: 193 ft
TransAlt. 18000 ft.

Airport Communications:
APP/DEP:133.4
ASOS:119.675
CLNC DEL:124.4
MIL OPS:122.8
ANDERSON RDO:114.7
CTAF/UNICOM:122.8

KCUB Zoom In..

Runways:

(A) RW 13 length 5011 ft width 75 ft
LOC 110.90 / hdg 131

(B) RW 31 length 5011 ft width 75 ft
LOC 110.90 / hdg 311

Location; KCUB
Day. 16 / Time. 01.53 Zulu
* Altimeter: 30.09
* Temperature: 29° c. 84.2°f.
* Wind from: 000° Speed 00 kn.
Dewpoint: 23° c.
Visibility: 10 Statute Miles.
Clouds: Clear (automated report).

KCUB 160153Z AUTO 00000KT 10SM CLR 29/23 A3009 RMK AO2 SLP185 T02890233

Going to: --> -->


Wind - Calm.

 
 
jpsmedia worldairports.se 2020   terms of use